Time;durP1;ratioP1;P1;durP2;ratioP2;P2;SDS_P1;SDS_P2;PMS_P1;PMS_P2;Temp;Humidity;BMP_temperature;BMP_pressure;BME280_temperature;BME280_humidity;BME280_pressure;Samples;Min_cycle;Max_cycle;Signal;HPM_P1;HPM_P2
2023/06/08 00:02:13;;;;;;;13.20;12.30;;;;;;;17.27;85.52;92854.41;4993219;28;20274;-79
2023/06/08 00:04:40;;;;;;;13.00;11.87;;;;;;;17.44;84.79;92854.41;5008609;28;20322;-79
2023/06/08 00:07:10;;;;;;;12.53;11.63;;;;;;;17.46;84.57;92846.19;5013235;28;20176;-79
2023/06/08 00:09:37;;;;;;;12.00;11.00;;;;;;;17.26;86.24;92844.16;5018203;28;20241;-79
2023/06/08 00:12:03;;;;;;;12.10;11.20;;;;;;;17.34;86.19;92852.06;5012283;28;20225;-79
2023/06/08 00:14:29;;;;;;;12.53;11.43;;;;;;;17.33;84.81;92847.88;5009876;28;20235;-79
2023/06/08 00:16:55;;;;;;;11.60;10.77;;;;;;;17.20;84.94;92835.63;5009943;28;20190;-79
2023/06/08 00:19:22;;;;;;;12.13;11.27;;;;;;;17.28;84.98;92855.16;5009371;28;20259;-79
2023/06/08 00:21:48;;;;;;;11.47;10.67;;;;;;;17.20;85.67;92859.38;5010115;28;20230;-78
2023/06/08 00:24:18;;;;;;;12.23;11.23;;;;;;;17.21;86.61;92860.91;5009741;28;20191;-78
2023/06/08 00:26:43;;;;;;;12.40;11.50;;;;;;;17.05;87.28;92841.41;4997815;28;20226;-79
2023/06/08 00:29:08;;;;;;;12.00;11.07;;;;;;;17.16;87.13;92847.13;5009591;28;20180;-79
2023/06/08 00:31:34;;;;;;;11.93;11.03;;;;;;;17.20;87.12;92859.38;5010894;28;20197;-79
2023/06/08 00:33:59;;;;;;;12.87;11.77;;;;;;;17.31;86.70;92859.81;5003910;28;20188;-79
2023/06/08 00:36:25;;;;;;;12.90;11.57;;;;;;;17.00;87.22;92841.53;5020940;28;20192;-78
2023/06/08 00:38:50;;;;;;;12.17;11.20;;;;;;;17.02;88.14;92857.84;5001248;28;20220;-78
2023/06/08 00:41:15;;;;;;;11.70;10.90;;;;;;;16.87;88.25;92847.75;5020540;28;20301;-79
2023/06/08 00:43:45;;;;;;;13.23;12.33;;;;;;;16.81;88.87;92837.69;5004020;28;20186;-78
2023/06/08 00:46:10;;;;;;;11.43;10.63;;;;;;;16.82;89.59;92845.28;5013035;28;20278;-78
2023/06/08 00:48:36;;;;;;;12.13;11.13;;;;;;;16.89;89.90;92858.78;5013407;28;20199;-78
2023/06/08 00:51:02;;;;;;;11.83;10.80;;;;;;;16.85;89.90;92854.44;5017333;28;20266;-78
2023/06/08 00:53:28;;;;;;;12.10;11.30;;;;;;;16.71;90.32;92848.53;5014502;28;20203;-79
2023/06/08 00:55:54;;;;;;;12.53;11.53;;;;;;;16.89;89.86;92855.34;4995366;28;20219;-78
2023/06/08 00:58:20;;;;;;;12.63;11.73;;;;;;;16.75;89.66;92854.72;5013386;28;20215;-79
2023/06/08 01:00:48;;;;;;;11.80;10.80;;;;;;;16.64;90.14;92850.88;5026804;28;20222;-78
2023/06/08 01:03:19;;;;;;;12.50;11.50;;;;;;;16.44;90.12;92836.41;5021404;28;20191;-78
2023/06/08 01:05:45;;;;;;;11.20;10.10;;;;;;;16.51;90.44;92846.50;5016092;28;20215;-78
2023/06/08 01:08:42;;;;;;;12.57;11.63;;;;;;;16.29;91.13;92844.72;5012312;28;20211;-78
2023/06/08 01:11:42;;;;;;;10.87;10.07;;;;;;;16.35;91.21;92846.13;5005751;28;20239;-78
2023/06/08 01:14:14;;;;;;;13.03;12.03;;;;;;;16.33;91.29;92839.63;5004359;28;20183;-78
2023/06/08 01:16:49;;;;;;;12.33;11.37;;;;;;;16.27;91.11;92844.25;5009456;28;20226;-83
2023/06/08 01:19:28;;;;;;;11.60;10.80;;;;;;;16.25;91.71;92835.13;5017675;28;20317;-77
2023/06/08 01:22:12;;;;;;;11.93;11.10;;;;;;;16.21;92.70;92848.13;5019295;28;20176;-77
2023/06/08 01:24:40;;;;;;;12.60;11.80;;;;;;;15.94;92.97;92816.75;5012942;28;21122;-78
2023/06/08 01:27:09;;;;;;;11.67;10.67;;;;;;;16.13;93.84;92851.50;5013182;28;20195;-78
2023/06/08 01:29:35;;;;;;;11.43;10.23;;;;;;;15.72;94.87;92830.00;5012125;28;20240;-77
2023/06/08 01:32:00;;;;;;;12.27;11.37;;;;;;;15.80;94.37;92816.06;5002428;28;20192;-77
2023/06/08 01:34:26;;;;;;;12.00;10.90;;;;;;;15.88;94.17;92824.00;5013150;28;20223;-77
2023/06/08 01:37:04;;;;;;;12.87;11.77;;;;;;;16.02;93.57;92840.47;5013054;28;20179;-77
2023/06/08 01:39:55;;;;;;;11.57;10.73;;;;;;;15.96;94.24;92840.91;5012742;28;20235;-76
2023/06/08 01:42:23;;;;;;;12.30;11.47;;;;;;;15.90;94.35;92818.44;5011752;28;20196;-77
2023/06/08 01:45:03;;;;;;;11.80;10.97;;;;;;;15.94;94.01;92811.47;5024444;28;20234;-77
2023/06/08 01:47:40;;;;;;;11.63;10.83;;;;;;;15.89;93.82;92822.16;5011380;28;20195;-77
2023/06/08 01:50:07;;;;;;;11.87;11.07;;;;;;;15.75;94.64;92813.59;5016607;28;20238;-77
2023/06/08 01:52:32;;;;;;;11.77;10.87;;;;;;;15.63;95.10;92814.16;5011660;28;20180;-77
2023/06/08 01:54:58;;;;;;;12.20;11.20;;;;;;;15.87;94.70;92837.50;5011464;28;20239;-77
2023/06/08 01:57:23;;;;;;;12.23;11.37;;;;;;;15.81;94.07;92822.91;5022103;28;20246;-77
2023/06/08 01:59:49;;;;;;;12.90;11.87;;;;;;;15.52;94.81;92809.47;5013991;28;20235;-77
2023/06/08 02:02:14;;;;;;;12.50;11.67;;;;;;;15.72;95.53;92835.28;5002772;28;20890;-78
2023/06/08 02:04:40;;;;;;;13.23;12.33;;;;;;;15.50;95.32;92801.13;5011463;28;20215;-78
2023/06/08 02:07:05;;;;;;;11.80;11.10;;;;;;;15.61;95.71;92834.75;5012198;28;20255;-77
2023/06/08 02:09:31;;;;;;;13.47;12.47;;;;;;;15.51;96.08;92813.19;5011479;28;20229;-77
2023/06/08 02:12:07;;;;;;;12.33;11.43;;;;;;;15.78;95.09;92829.53;5012235;28;20223;-77
2023/06/08 02:14:33;;;;;;;12.97;11.90;;;;;;;15.56;96.02;92820.94;5011166;28;20302;-77
2023/06/08 02:17:00;;;;;;;13.47;12.27;;;;;;;15.58;96.08;92832.72;5011438;28;20171;-77
2023/06/08 02:19:26;;;;;;;11.73;10.90;;;;;;;14.98;98.21;92784.25;5009159;28;20246;-79
2023/06/08 02:21:52;;;;;;;12.73;11.63;;;;;;;15.48;97.53;92835.63;5007428;28;20187;-74
2023/06/08 02:24:18;;;;;;;12.80;11.90;;;;;;;15.29;96.51;92789.50;5011873;28;20223;-74
2023/06/08 02:26:44;;;;;;;14.03;13.03;;;;;;;15.26;97.42;92837.47;5017646;28;20214;-74
2023/06/08 02:29:09;;;;;;;12.90;11.90;;;;;;;15.43;97.64;92825.22;5011330;28;20171;-74
2023/06/08 02:31:35;;;;;;;13.57;12.40;;;;;;;15.31;97.31;92824.97;5011310;28;20214;-74
2023/06/08 02:34:00;;;;;;;12.70;11.40;;;;;;;15.25;98.41;92830.66;5011713;28;20187;-75
2023/06/08 02:36:31;;;;;;;12.80;11.70;;;;;;;15.32;98.16;92833.63;5011619;28;20183;-73
2023/06/08 02:38:57;;;;;;;12.73;11.73;;;;;;;15.32;97.96;92823.09;5011791;28;20175;-74
2023/06/08 02:41:22;;;;;;;12.77;11.90;;;;;;;15.38;97.21;92829.81;5012389;28;20222;-75
2023/06/08 02:43:48;;;;;;;12.30;11.50;;;;;;;14.95;98.74;92797.22;5015299;28;20184;-74
2023/06/08 02:46:13;;;;;;;12.93;12.03;;;;;;;15.28;98.07;92824.81;5010786;28;20295;-74
2023/06/08 02:48:38;;;;;;;12.73;11.40;;;;;;;14.80;100.00;92829.13;5015265;28;20195;-74
2023/06/08 02:51:04;;;;;;;12.03;11.03;;;;;;;14.90;100.00;92818.38;5011980;28;20733;-74
2023/06/08 02:53:29;;;;;;;11.63;10.73;;;;;;;15.38;98.63;92829.81;5013155;28;20187;-74
2023/06/08 02:55:55;;;;;;;12.10;11.23;;;;;;;15.04;98.20;92783.06;5010542;28;20227;-74
2023/06/08 02:58:20;;;;;;;12.50;11.50;;;;;;;15.43;97.21;92824.44;5011639;28;20212;-75
2023/06/08 03:00:48;;;;;;;13.00;11.97;;;;;;;15.49;96.78;92828.50;5004135;28;20227;-74
2023/06/08 03:03:14;;;;;;;12.57;11.20;;;;;;;15.42;96.87;92831.56;5013576;28;20180;-74
2023/06/08 03:05:39;;;;;;;12.00;10.90;;;;;;;15.54;95.87;92820.47;5013331;28;20283;-74
2023/06/08 03:08:06;;;;;;;12.53;11.63;;;;;;;15.59;96.30;92831.66;5013550;28;20243;-74
2023/06/08 03:10:31;;;;;;;12.60;11.73;;;;;;;15.83;94.66;92839.16;5011762;28;20231;-74
2023/06/08 03:12:57;;;;;;;11.87;11.00;;;;;;;15.58;95.02;92816.94;5013172;28;20219;-74
2023/06/08 03:15:25;;;;;;;12.00;11.03;;;;;;;16.08;93.52;92835.84;4992783;28;20287;-74
2023/06/08 03:17:51;;;;;;;12.90;11.90;;;;;;;15.89;94.01;92836.09;5014895;28;20180;-75
2023/06/08 03:20:17;;;;;;;12.50;11.30;;;;;;;16.34;92.20;92835.91;5011745;28;20235;-74
2023/06/08 03:22:45;;;;;;;12.20;11.50;;;;;;;16.39;91.57;92833.88;5013406;28;20176;-74
2023/06/08 03:25:15;;;;;;;12.87;11.67;;;;;;;16.71;89.96;92837.97;5008834;28;20235;-75
2023/06/08 03:27:40;;;;;;;11.97;11.17;;;;;;;16.78;89.79;92840.94;5012602;28;20194;-74
2023/06/08 03:30:06;;;;;;;11.53;10.73;;;;;;;16.96;88.54;92838.00;5011115;28;20218;-75
2023/06/08 03:32:32;;;;;;;12.30;11.30;;;;;;;17.10;87.87;92849.16;5015045;28;20199;-74
2023/06/08 03:34:57;;;;;;;14.30;13.20;;;;;;;17.08;87.74;92843.41;5012433;28;20227;-74
2023/06/08 03:37:23;;;;;;;13.67;12.67;;;;;;;17.27;87.69;92846.50;5012030;28;20820;-74
2023/06/08 03:39:48;;;;;;;12.30;11.40;;;;;;;17.24;86.36;92820.72;5011348;28;20219;-74
2023/06/08 03:42:14;;;;;;;11.63;10.80;;;;;;;17.31;87.05;92844.78;5013487;28;20187;-74
2023/06/08 03:44:39;;;;;;;12.33;11.20;;;;;;;17.39;86.91;92840.56;5007643;28;20299;-68
2023/06/08 03:47:08;;;;;;;12.70;11.47;;;;;;;17.74;85.21;92852.63;5009315;28;20187;-70
2023/06/08 03:49:34;;;;;;;12.67;11.47;;;;;;;17.86;84.19;92854.59;5023587;28;20226;-70
2023/06/08 03:52:01;;;;;;;12.80;11.80;;;;;;;17.79;84.46;92844.50;5010857;28;20194;-69
2023/06/08 03:54:26;;;;;;;11.83;10.93;;;;;;;18.44;80.92;92847.50;5007956;28;20239;-69
2023/06/08 03:56:51;;;;;;;12.73;11.93;;;;;;;18.60;80.99;92863.59;5009381;28;20199;-69
2023/06/08 03:59:17;;;;;;;12.17;11.17;;;;;;;19.05;78.47;92869.81;5009799;28;20223;-68
2023/06/08 04:01:45;;;;;;;12.23;11.23;;;;;;;18.99;77.70;92871.06;5010921;28;20194;-67
2023/06/08 04:04:10;;;;;;;12.90;11.80;;;;;;;18.94;77.24;92877.34;5009780;28;20209;-67
2023/06/08 04:06:38;;;;;;;11.70;10.60;;;;;;;18.97;77.09;92874.03;5012501;28;20192;-71
2023/06/08 04:09:04;;;;;;;12.40;11.30;;;;;;;19.12;76.63;92864.75;5011509;28;20176;-71
2023/06/08 04:11:29;;;;;;;12.03;11.13;;;;;;;18.29;78.44;92873.69;5008229;28;20230;-70
2023/06/08 04:13:55;;;;;;;11.90;10.73;;;;;;;18.88;77.71;92880.47;5015506;28;20199;-72
2023/06/08 04:16:20;;;;;;;11.27;10.47;;;;;;;18.55;77.04;92869.81;5009214;28;20196;-72
2023/06/08 04:18:46;;;;;;;11.00;10.10;;;;;;;18.76;76.82;92875.13;5014114;28;20212;-71
2023/06/08 04:21:11;;;;;;;12.00;11.10;;;;;;;18.86;75.57;92872.88;5010728;28;20283;-70
2023/06/08 04:23:36;;;;;;;11.10;10.30;;;;;;;18.62;76.60;92885.97;5000160;28;20205;-69
2023/06/08 04:26:04;;;;;;;12.27;11.13;;;;;;;18.52;74.45;92867.06;5009265;28;20230;-70
2023/06/08 04:28:30;;;;;;;11.30;10.43;;;;;;;19.37;72.02;92879.66;5000059;28;20200;-70
2023/06/08 04:30:59;;;;;;;11.80;10.90;;;;;;;19.36;71.88;92875.47;5010470;28;20234;-71
2023/06/08 04:33:25;;;;;;;12.43;11.37;;;;;;;19.50;71.56;92875.97;5012025;28;20188;-70
2023/06/08 04:35:51;;;;;;;13.70;11.33;;;;;;;19.08;72.40;92879.75;5011435;28;20231;-70
2023/06/08 04:38:16;;;;;;;11.03;10.20;;;;;;;19.55;70.94;92877.66;5012188;28;20255;-70
2023/06/08 04:40:52;;;;;;;12.67;11.40;;;;;;;19.67;70.14;92872.38;5011158;28;20257;-70
2023/06/08 04:43:17;;;;;;;11.60;10.70;;;;;;;19.74;70.47;92878.69;5012045;28;20206;-68
2023/06/08 04:45:43;;;;;;;12.33;11.40;;;;;;;19.72;71.74;92867.63;5009977;28;20520;-70
2023/06/08 04:48:12;;;;;;;11.80;10.90;;;;;;;19.96;69.84;92875.63;5000782;28;20261;-70
2023/06/08 04:50:38;;;;;;;10.97;10.17;;;;;;;20.05;69.52;92881.59;5008549;28;20247;-70
2023/06/08 04:53:05;;;;;;;11.60;10.73;;;;;;;20.05;69.65;92878.19;5007231;28;20253;-70
2023/06/08 04:55:30;;;;;;;13.17;11.83;;;;;;;20.00;68.86;92868.56;5011104;28;20398;-70
2023/06/08 04:57:56;;;;;;;12.33;11.23;;;;;;;19.90;70.48;92874.31;5011326;28;20194;-70
2023/06/08 05:00:21;;;;;;;11.03;10.13;;;;;;;19.67;70.05;92878.47;5018129;28;20228;-70
2023/06/08 05:02:47;;;;;;;11.87;10.90;;;;;;;19.81;71.33;92876.28;5011757;28;20197;-70
2023/06/08 05:05:12;;;;;;;10.90;10.10;;;;;;;19.87;70.25;92880.25;5004733;28;20229;-70
2023/06/08 05:07:38;;;;;;;11.60;10.63;;;;;;;20.27;69.01;92888.41;5010847;28;20216;-70
2023/06/08 05:10:04;;;;;;;12.67;11.50;;;;;;;20.55;67.20;92887.41;5011285;28;20229;-69
2023/06/08 05:12:30;;;;;;;12.40;11.17;;;;;;;20.04;71.34;92890.69;5011698;28;20216;-70
2023/06/08 05:14:55;;;;;;;11.70;10.73;;;;;;;20.31;67.90;92884.75;5011155;28;20718;-71
2023/06/08 05:17:22;;;;;;;12.63;11.43;;;;;;;20.55;66.54;92887.41;5010481;28;20193;-71
2023/06/08 05:19:49;;;;;;;12.10;11.20;;;;;;;20.29;68.57;92886.97;5020931;28;20228;-72
2023/06/08 05:22:15;;;;;;;11.03;10.03;;;;;;;20.73;65.70;92852.69;5011859;28;20189;-72
2023/06/08 05:24:40;;;;;;;11.97;10.93;;;;;;;20.95;65.81;92892.00;5011237;28;20253;-71
2023/06/08 05:27:06;;;;;;;11.90;10.63;;;;;;;20.85;66.39;92890.59;5010692;28;20229;-74
2023/06/08 05:29:31;;;;;;;12.13;10.37;;;;;;;21.42;64.16;92893.00;5011475;28;20365;-71
2023/06/08 05:31:56;;;;;;;11.13;10.20;;;;;;;22.08;62.51;92894.84;5010340;28;20200;-72
2023/06/08 05:34:22;;;;;;;11.15;10.35;;;;;;;24.19;55.33;92907.44;5010707;28;20242;-71
2023/06/08 05:36:47;;;;;;;14.57;11.07;;;;;;;27.70;44.00;92911.47;5009610;28;20269;-73
2023/06/08 05:39:12;;;;;;;10.15;9.30;;;;;;;30.52;38.45;92918.22;5009846;28;20197;-73
2023/06/08 05:41:38;;;;;;;10.45;9.50;;;;;;;30.31;37.62;92918.34;5010846;28;20215;-73
2023/06/08 05:44:04;;;;;;;10.38;9.38;;;;;;;31.75;34.44;92890.19;5010747;28;20279;-73
2023/06/08 05:46:29;;;;;;;10.18;9.10;;;;;;;32.67;32.42;92928.41;5010483;28;20195;-72
2023/06/08 05:48:55;;;;;;;11.18;8.55;;;;;;;33.49;30.97;92923.28;5005705;28;20218;-72
2023/06/08 05:51:20;;;;;;;9.15;8.18;;;;;;;34.12;30.41;92932.94;5011075;28;20266;-70
2023/06/08 05:53:46;;;;;;;11.82;8.32;;;;;;;34.24;29.07;92918.00;5007021;28;21925;-71
2023/06/08 05:56:11;;;;;;;8.85;7.93;;;;;;;34.69;28.94;92929.81;5009853;28;20227;-71
2023/06/08 05:58:37;;;;;;;9.45;8.52;;;;;;;33.95;28.85;92923.22;4996486;28;20187;-70
2023/06/08 06:01:04;;;;;;;8.95;8.20;;;;;;;34.10;29.13;92927.16;5008312;28;20344;-71
2023/06/08 06:03:30;;;;;;;8.95;8.25;;;;;;;34.47;28.62;92909.78;5010725;28;20202;-70
2023/06/08 06:05:57;;;;;;;9.73;7.88;;;;;;;34.82;28.13;92919.06;5010230;28;20230;-69
2023/06/08 06:08:23;;;;;;;9.43;7.90;;;;;;;35.25;28.24;92925.81;5009488;28;20195;-71
2023/06/08 06:10:49;;;;;;;9.90;7.90;;;;;;;35.08;27.44;92927.00;5005967;28;21032;-71
2023/06/08 06:13:14;;;;;;;8.25;7.47;;;;;;;34.42;28.76;92918.41;5010093;28;20191;-70
2023/06/08 06:15:39;;;;;;;8.20;7.60;;;;;;;35.12;27.90;92919.53;5009528;28;20231;-71
2023/06/08 06:18:05;;;;;;;8.38;7.57;;;;;;;33.39;28.86;92923.47;5013968;28;20221;-72
2023/06/08 06:20:30;;;;;;;9.32;8.50;;;;;;;32.60;30.74;92916.94;5015817;28;20235;-71
2023/06/08 06:22:55;;;;;;;9.75;8.77;;;;;;;35.26;27.72;92926.56;5009382;28;20202;-71
2023/06/08 06:25:23;;;;;;;8.90;8.00;;;;;;;34.44;28.19;92921.47;5010284;28;20262;-71
2023/06/08 06:27:48;;;;;;;9.57;8.25;;;;;;;35.39;26.96;92925.50;5009280;28;20183;-71
2023/06/08 06:30:15;;;;;;;9.55;8.73;;;;;;;35.28;27.20;92927.69;5008894;28;20226;-71
2023/06/08 06:32:40;;;;;;;9.32;8.45;;;;;;;34.15;28.36;92923.22;5006576;28;20199;-69
2023/06/08 06:35:06;;;;;;;8.10;7.45;;;;;;;35.52;26.49;92929.03;5009462;28;20291;-71
2023/06/08 06:37:34;;;;;;;9.68;8.88;;;;;;;32.44;29.82;92916.75;5012590;28;20202;-71
2023/06/08 06:40:06;;;;;;;9.60;8.70;;;;;;;30.39;33.93;92898.28;5016205;28;20303;-71
2023/06/08 06:42:33;;;;;;;10.13;8.85;;;;;;;31.78;32.62;92905.59;5009638;28;20187;-71
2023/06/08 06:44:58;;;;;;;9.65;8.85;;;;;;;31.25;32.79;92897.25;5009064;28;20235;-70
2023/06/08 06:47:24;;;;;;;9.32;8.52;;;;;;;31.94;31.39;92908.50;5009640;28;20190;-70
2023/06/08 06:49:50;;;;;;;13.70;8.95;;;;;;;29.21;35.50;92901.00;5006461;28;20239;-70
2023/06/08 06:52:15;;;;;;;13.32;9.50;;;;;;;26.86;41.06;92888.72;5010220;28;20191;-70
2023/06/08 06:54:41;;;;;;;11.93;9.07;;;;;;;24.46;47.83;92870.91;5008878;28;20235;-70
2023/06/08 06:57:07;;;;;;;10.02;9.20;;;;;;;24.10;50.54;92871.44;5009593;28;20188;-70
2023/06/08 06:59:32;;;;;;;9.82;9.02;;;;;;;24.66;48.21;92869.72;5008914;28;20230;-70
2023/06/08 07:01:58;;;;;;;12.85;9.20;;;;;;;24.41;48.11;92863.19;4998251;28;20219;-69
2023/06/08 07:04:23;;;;;;;9.35;8.70;;;;;;;23.77;49.13;92867.41;5006170;28;20694;-69
2023/06/08 07:06:50;;;;;;;10.85;9.18;;;;;;;23.36;53.47;92864.69;5009647;28;20726;-70
2023/06/08 07:09:16;;;;;;;11.20;10.32;;;;;;;23.66;52.27;92865.66;5008621;28;20335;-70
2023/06/08 07:11:42;;;;;;;10.65;9.80;;;;;;;23.75;50.82;92861.66;5009361;28;20239;-70
2023/06/08 07:14:07;;;;;;;12.60;10.15;;;;;;;23.72;51.37;92851.69;5008666;28;20184;-69
2023/06/08 07:16:32;;;;;;;10.13;9.43;;;;;;;24.08;52.02;92847.03;5006813;28;20193;-70
2023/06/08 07:18:58;;;;;;;10.43;9.45;;;;;;;23.63;50.04;92869.81;4999785;28;20188;-70
2023/06/08 07:21:23;;;;;;;10.05;9.40;;;;;;;23.26;52.06;92851.94;5008698;28;20220;-70
2023/06/08 07:23:50;;;;;;;10.10;9.43;;;;;;;23.39;52.16;92854.09;5008557;28;20203;-70
2023/06/08 07:26:16;;;;;;;12.15;8.98;;;;;;;23.32;52.75;92853.97;5008532;28;20218;-71
2023/06/08 07:28:41;;;;;;;11.45;10.00;;;;;;;22.83;55.74;92852.91;5009402;28;20225;-70
2023/06/08 07:31:07;;;;;;;11.23;10.20;;;;;;;23.24;54.66;92867.44;5008212;28;20244;-71
2023/06/08 07:33:32;;;;;;;11.07;10.00;;;;;;;23.10;55.21;92862.59;5009793;28;20198;-70
2023/06/08 07:35:58;;;;;;;11.25;10.05;;;;;;;23.58;53.59;92843.44;5007538;28;20222;-70
2023/06/08 07:38:23;;;;;;;10.55;9.75;;;;;;;23.49;53.87;92860.75;5009313;28;20185;-70
2023/06/08 07:40:48;;;;;;;10.18;9.38;;;;;;;23.28;55.03;92861.13;5008368;28;20222;-70
2023/06/08 07:43:14;;;;;;;10.43;9.63;;;;;;;23.29;53.91;92851.22;5009107;28;20189;-71
2023/06/08 07:45:39;;;;;;;10.35;9.57;;;;;;;22.25;59.75;92827.22;5007462;28;20233;-71
2023/06/08 07:48:05;;;;;;;11.20;10.38;;;;;;;23.33;57.98;92855.50;5009044;28;20217;-71
2023/06/08 07:50:30;;;;;;;11.00;10.20;;;;;;;23.69;56.82;92855.06;5006280;28;20236;-70
2023/06/08 07:52:56;;;;;;;12.48;9.93;;;;;;;23.52;54.22;92834.16;5006768;28;20201;-71
2023/06/08 07:55:21;;;;;;;11.60;10.45;;;;;;;23.67;54.45;92849.31;5008030;28;20236;-70
2023/06/08 07:57:48;;;;;;;9.93;9.13;;;;;;;23.59;55.92;92844.97;5008609;28;20185;-70
2023/06/08 08:00:14;;;;;;;11.40;10.60;;;;;;;23.63;55.46;92856.47;5005991;28;20221;-70
2023/06/08 08:02:40;;;;;;;10.95;10.05;;;;;;;23.65;57.28;92851.56;5008739;28;20196;-69
2023/06/08 08:05:08;;;;;;;13.10;10.70;;;;;;;23.13;58.90;92850.50;5008197;28;20332;-70
2023/06/08 08:07:34;;;;;;;11.40;10.50;;;;;;;23.84;56.37;92853.44;5008636;28;20198;-70
2023/06/08 08:09:59;;;;;;;10.93;10.02;;;;;;;23.58;57.48;92858.66;5007702;28;20329;-70
2023/06/08 08:12:25;;;;;;;10.38;9.30;;;;;;;23.94;56.80;92854.75;5008426;28;20247;-70
2023/06/08 08:14:50;;;;;;;11.85;10.65;;;;;;;24.18;55.90;92852.53;5007238;28;20261;-69
2023/06/08 08:17:15;;;;;;;10.90;10.18;;;;;;;24.57;56.26;92851.25;5003622;28;20193;-73
2023/06/08 08:19:41;;;;;;;11.30;10.30;;;;;;;24.82;53.56;92854.31;4996982;28;20266;-69
2023/06/08 08:22:07;;;;;;;11.07;10.23;;;;;;;24.97;50.84;92861.38;5005200;28;20197;-68
2023/06/08 08:24:32;;;;;;;10.10;9.40;;;;;;;24.28;54.71;92851.91;5008169;28;20249;-69
2023/06/08 08:26:58;;;;;;;10.98;10.18;;;;;;;23.16;57.81;92823.91;5013002;28;20185;-69
2023/06/08 08:29:23;;;;;;;10.45;9.73;;;;;;;24.30;52.98;92854.22;5007932;28;20257;-69
2023/06/08 08:31:49;;;;;;;10.15;9.38;;;;;;;23.83;54.69;92798.53;5010601;28;20189;-68
2023/06/08 08:34:14;;;;;;;10.98;10.07;;;;;;;23.97;57.21;92849.47;5009624;28;20245;-67
2023/06/08 08:36:39;;;;;;;10.43;9.63;;;;;;;24.20;55.47;92844.16;5007779;28;20198;-69
2023/06/08 08:39:05;;;;;;;10.65;9.95;;;;;;;24.22;53.87;92845.34;5007802;28;20194;-69
2023/06/08 08:41:32;;;;;;;10.23;9.52;;;;;;;24.18;54.99;92839.19;5004541;28;20222;-69
2023/06/08 08:44:04;;;;;;;10.23;9.52;;;;;;;24.45;58.64;92846.09;4990243;28;20222;-69
2023/06/08 08:46:37;;;;;;;10.80;10.00;;;;;;;24.69;54.84;92839.63;5007991;28;20226;-70
2023/06/08 08:49:08;;;;;;;10.30;9.43;;;;;;;24.82;53.98;92846.31;5007216;28;20207;-70
2023/06/08 08:51:38;;;;;;;10.68;9.98;;;;;;;24.61;52.05;92843.28;5008087;28;20188;-70
2023/06/08 08:54:04;;;;;;;9.85;9.10;;;;;;;24.23;52.76;92846.13;5008122;28;20181;-70
2023/06/08 08:56:35;;;;;;;10.70;10.02;;;;;;;24.78;52.85;92834.81;5008030;28;20889;-70
2023/06/08 08:59:02;;;;;;;10.60;9.90;;;;;;;24.91;51.36;92849.47;5004381;28;20189;-70
2023/06/08 09:01:28;;;;;;;9.95;9.25;;;;;;;24.28;53.62;92835.16;5004220;28;20295;-69
2023/06/08 09:03:53;;;;;;;9.98;9.27;;;;;;;24.42;52.63;92835.38;5004697;28;20181;-71
2023/06/08 09:06:19;;;;;;;10.13;9.10;;;;;;;24.14;55.53;92829.59;5011193;28;20257;-70
2023/06/08 09:08:45;;;;;;;11.90;10.93;;;;;;;24.39;54.05;92830.75;5005886;28;20197;-70
2023/06/08 09:11:11;;;;;;;11.23;10.43;;;;;;;24.51;51.31;92833.22;5010668;28;20228;-71
2023/06/08 09:13:41;;;;;;;10.27;9.57;;;;;;;24.06;54.05;92831.38;5006518;28;20197;-71
2023/06/08 09:16:11;;;;;;;15.20;13.90;;;;;;;24.19;52.31;92831.97;5010083;28;20214;-70
2023/06/08 09:18:37;;;;;;;10.60;9.70;;;;;;;24.20;52.88;92842.28;5010103;28;20239;-70
2023/06/08 09:21:22;;;;;;;10.50;9.70;;;;;;;24.07;55.90;92829.47;5010603;28;20250;-72
2023/06/08 09:24:18;;;;;;;9.38;8.77;;;;;;;24.74;52.62;92832.09;5011614;28;20183;-72
2023/06/08 09:26:56;;;;;;;10.75;9.95;;;;;;;24.73;51.67;92827.09;5004326;28;20238;-71
2023/06/08 09:29:37;;;;;;;10.82;10.02;;;;;;;24.62;51.20;92839.50;5009436;28;20229;-73
2023/06/08 09:32:05;;;;;;;10.75;9.85;;;;;;;24.44;55.41;92825.09;5011654;28;20192;-72
2023/06/08 09:34:33;;;;;;;10.50;9.70;;;;;;;23.87;55.17;92826.06;5010204;28;20233;-72
2023/06/08 09:37:10;;;;;;;10.50;9.75;;;;;;;24.77;52.59;92827.91;5011218;28;20751;-70
2023/06/08 09:39:43;;;;;;;10.57;9.88;;;;;;;24.70;51.22;92825.16;5010116;28;20242;-70
2023/06/08 09:42:10;;;;;;;11.00;10.20;;;;;;;24.67;52.36;92809.84;5010935;28;20205;-69
2023/06/08 09:44:36;;;;;;;11.20;10.50;;;;;;;24.98;53.78;92812.19;5010619;28;20233;-71
2023/06/08 09:47:21;;;;;;;13.20;9.60;;;;;;;25.38;49.83;92824.91;5011209;28;20203;-72
2023/06/08 09:49:47;;;;;;;10.93;9.75;;;;;;;25.07;49.92;92799.31;5006728;28;20246;-72
2023/06/08 09:52:14;;;;;;;10.07;9.38;;;;;;;25.06;50.66;92798.53;5009813;28;20197;-70
2023/06/08 09:54:45;;;;;;;10.63;9.57;;;;;;;25.02;50.50;92813.78;5010462;28;20244;-71
2023/06/08 09:57:13;;;;;;;10.25;9.45;;;;;;;25.03;51.67;92811.84;4993485;28;20190;-71
2023/06/08 09:59:44;;;;;;;11.48;10.52;;;;;;;24.81;52.24;92810.81;5008141;28;20243;-71
2023/06/08 10:02:22;;;;;;;9.82;9.13;;;;;;;24.76;51.21;92803.09;5011113;28;20193;-72
2023/06/08 10:04:55;;;;;;;10.70;9.88;;;;;;;24.49;50.58;92804.22;5003129;28;20253;-70
2023/06/08 10:07:25;;;;;;;10.27;9.15;;;;;;;24.64;50.17;92799.88;5002975;28;20186;-70
2023/06/08 10:09:59;;;;;;;10.63;9.93;;;;;;;24.27;54.25;92798.91;5009808;28;20230;-71
2023/06/08 10:12:30;;;;;;;10.75;9.82;;;;;;;24.75;52.67;92788.22;5010700;28;20225;-71
2023/06/08 10:14:57;;;;;;;10.25;9.50;;;;;;;25.13;50.31;92793.28;5003643;28;20225;-70
2023/06/08 10:17:24;;;;;;;10.70;9.65;;;;;;;25.12;50.16;92799.00;5009822;28;20193;-70
2023/06/08 10:19:50;;;;;;;10.65;9.43;;;;;;;25.05;47.70;92790.88;5019952;28;20260;-70
2023/06/08 10:22:17;;;;;;;9.65;8.73;;;;;;;24.91;50.29;92783.47;5010056;28;20193;-70
2023/06/08 10:24:45;;;;;;;10.00;9.20;;;;;;;24.97;50.41;92787.34;5009887;28;20234;-69
2023/06/08 10:27:26;;;;;;;9.50;8.80;;;;;;;25.05;51.89;92783.66;5010581;28;20185;-70
2023/06/08 10:29:59;;;;;;;10.10;9.27;;;;;;;23.96;51.10;92775.13;4998892;28;20252;-70
2023/06/08 10:32:45;;;;;;;9.80;9.10;;;;;;;23.52;54.50;92777.41;5010111;28;20185;-72
2023/06/08 10:35:10;;;;;;;10.10;9.30;;;;;;;23.96;53.03;92737.78;5009585;28;20249;-72
2023/06/08 10:37:37;;;;;;;9.63;8.95;;;;;;;24.84;52.90;92772.69;5010141;28;20283;-72
2023/06/08 10:40:11;;;;;;;9.80;8.98;;;;;;;25.47;50.51;92778.03;5009787;28;20237;-71
2023/06/08 10:42:37;;;;;;;9.75;9.05;;;;;;;25.50;48.84;92766.63;5010215;28;20258;-70
2023/06/08 10:45:04;;;;;;;10.05;9.05;;;;;;;25.53;50.00;92771.22;5005484;28;20245;-71
2023/06/08 10:47:35;;;;;;;10.07;9.38;;;;;;;25.47;51.23;92766.56;5009619;28;20206;-71
2023/06/08 10:50:03;;;;;;;10.85;10.05;;;;;;;25.77;49.07;92765.38;4996574;28;20273;-72
2023/06/08 10:52:39;;;;;;;9.82;9.13;;;;;;;25.51;49.86;92752.09;5003965;28;20201;-71
2023/06/08 10:55:08;;;;;;;10.07;9.30;;;;;;;25.48;49.10;92752.84;4999541;28;20223;-71
2023/06/08 10:57:54;;;;;;;9.48;8.77;;;;;;;25.51;50.27;92760.13;4991136;28;20192;-72
2023/06/08 11:00:28;;;;;;;9.57;8.85;;;;;;;25.29;51.08;92753.00;5009465;28;20296;-70
2023/06/08 11:02:56;;;;;;;9.18;8.68;;;;;;;25.37;48.60;92724.47;5009667;28;20185;-72
2023/06/08 11:05:23;;;;;;;9.93;9.23;;;;;;;25.39;50.96;92743.59;5011444;28;20230;-73
2023/06/08 11:07:50;;;;;;;10.15;9.38;;;;;;;24.90;51.71;92738.41;5009682;28;20193;-72
2023/06/08 11:10:15;;;;;;;9.45;8.88;;;;;;;25.31;51.46;92736.59;5007412;28;20234;-72
2023/06/08 11:12:41;;;;;;;10.57;9.77;;;;;;;25.50;49.29;92739.88;5009299;28;20233;-73
2023/06/08 11:15:07;;;;;;;9.88;9.15;;;;;;;25.07;50.40;92729.84;5007146;28;20225;-73
2023/06/08 11:17:41;;;;;;;9.95;9.15;;;;;;;25.52;48.19;92726.91;5011164;28;20195;-78
2023/06/08 11:20:07;;;;;;;9.77;9.18;;;;;;;25.54;49.37;92724.66;5000192;28;20226;-74
2023/06/08 11:22:33;;;;;;;10.32;9.45;;;;;;;25.68;48.59;92719.44;5008928;28;20237;-74
2023/06/08 11:25:00;;;;;;;9.77;9.15;;;;;;;25.86;48.93;92725.69;5008029;28;20229;-73